Flight Track Log - Related Links

Times and Time Zones

All times are in EST time to prevent confusion due to time zone crossing. See the FIN666 flight status page for this flight to view local times or setup timezone preferences in your user account.

Time Position Orientation Groundspeed Altitude Reporting Facility
EST Latitude Longitude Course Direction KTS MPH feet Rate Location/Type
Mon 07:22:00 AM 55.8592 13.1550 49° Northeast  Level Estimated
Mon 07:23:00 AM 55.9392 13.3227 50° Northeast  Level Estimated
Mon 07:24:00 AM 56.0189 13.4911 50° Northeast  Level Estimated
Mon 07:25:00 AM 56.0985 13.6603 50° Northeast  Level Estimated
Mon 07:26:00 AM 56.1777 13.8301 50° Northeast  Level Estimated
Mon 07:27:00 AM 56.2593 14.0060 50° Northeast  Level Estimated
Mon 07:28:00 AM 56.3406 14.1827 50° Northeast  Level Estimated
Mon 07:29:00 AM 56.4217 14.3601 50° Northeast  Level Estimated
Mon 07:30:00 AM 56.5025 14.5383 51° Northeast  Level Estimated
Mon 07:31:00 AM 56.5830 14.7173 51° Northeast  Level Estimated
Mon 07:32:00 AM 56.6633 14.8970 51° Northeast  Level Estimated
Mon 07:33:00 AM 56.7434 15.0775 51° Northeast  Level Estimated
Mon 07:34:00 AM 56.8231 15.2588 51° Northeast  Level Estimated
Mon 07:35:00 AM 56.9039 15.4437 51° Northeast  Level Estimated
Mon 07:36:00 AM 56.9844 15.6295 51° Northeast  Level Estimated
Mon 07:37:00 AM 57.0646 15.8161 52° Northeast  Level Estimated
Mon 07:38:00 AM 57.1446 16.0035 52° Northeast  Level Estimated
Mon 07:39:00 AM 57.2243 16.1917 52° Northeast  Level Estimated
Mon 07:40:00 AM 57.3036 16.3807 52° Northeast  Level Estimated
Mon 07:41:00 AM 57.3828 16.5705 52° Northeast  Level Estimated
Mon 07:42:00 AM 57.4616 16.7611 52° Northeast  Level Estimated
Mon 07:43:00 AM 57.5401 16.9526 53° Northeast  Level Estimated
Mon 07:44:00 AM 57.6184 17.1449 53° Northeast  Level Estimated
Mon 07:45:00 AM 57.6963 17.3380 53° Northeast  Level Estimated
Mon 07:46:00 AM 57.7739 17.5319 53° Northeast  Level Estimated
Mon 07:47:00 AM 57.8513 17.7267 53° Northeast  Level Estimated
Mon 07:48:00 AM 57.9283 17.9223 53° Northeast  Level Estimated
Mon 07:49:00 AM 58.0051 18.1188 54° Northeast  Level Estimated
Mon 07:50:00 AM 58.0816 18.3161 54° Northeast  Level Estimated
Mon 07:51:00 AM 58.1577 18.5143 54° Northeast  Level Estimated
Mon 07:52:00 AM 58.2335 18.7132 54° Northeast  Level Estimated
Mon 07:53:00 AM 58.3090 18.9131 54° Northeast  Level Estimated
Mon 07:54:00 AM 58.3843 19.1138 54° Northeast  Level Estimated
Mon 07:55:00 AM 58.4591 19.3153 55° Northeast  Level Estimated
Mon 07:56:00 AM 58.5337 19.5178 55° Northeast  Level Estimated
Mon 07:57:00 AM 58.6080 19.7210 55° Northeast  Level Estimated
Mon 07:58:00 AM 58.6819 19.9252 55° Northeast  Level Estimated
Mon 07:59:00 AM 58.7555 20.1302 55° Northeast  Level Estimated
Mon 08:00:00 AM 58.8288 20.3360 55° Northeast  Level Estimated
Mon 08:01:00 AM 58.9018 20.5428 56° Northeast  Level Estimated
Mon 08:02:00 AM 58.9744 20.7504 56° Northeast  Level Estimated
Mon 08:03:00 AM 59.0467 20.9589 56° Northeast  Level Estimated
Mon 08:04:00 AM 59.1186 21.1683 56° Northeast  Level Estimated
Mon 08:05:00 AM 59.1903 21.3785 56° Northeast  Level Estimated
Mon 08:06:00 AM 59.2615 21.5896 56° Northeast  Level Estimated
Mon 08:07:00 AM 59.3325 21.8016 57° Northeast  Level Estimated
Mon 08:08:00 AM 59.4031 22.0145 57° Northeast  Level Estimated
Mon 08:09:00 AM 59.4733 22.2283 57° Northeast  Level Estimated
Mon 08:10:00 AM 59.5432 22.4430 57° Northeast  Level Estimated
Mon 08:11:00 AM 59.6127 22.6586 57° Northeast  Level Estimated
Mon 08:12:00 AM 59.6819 22.8750 58° Northeast  Level Estimated
Mon 08:13:00 AM 59.7507 23.0924 58° Northeast  Level Estimated
Mon 08:14:00 AM 59.8192 23.3106 58° Northeast  Level Estimated
Mon 08:15:00 AM 59.8873 23.5297 58° Northeast  Level Estimated
Mon 08:16:00 AM 59.9550 23.7498 58° Northeast  Level Estimated
Mon 08:17:00 AM 60.0224 23.9707 59° Northeast  Level Estimated
Mon 08:18:00 AM 60.0894 24.1925 59° Northeast  Level Estimated
Mon 08:19:00 AM 60.1560 24.4153 59° Northeast  Level Estimated
Mon 08:20:00 AM 60.2223 24.6389 59° Northeast  Level Estimated
Mon 08:21:00 AM 60.2881 24.8634 59° Northeast  Level Estimated
Mon 08:22:00 AM 60.3172 24.9633 60° Northeast  Level Estimated
Mon 08:23:00 AM 60.3172 24.9633 37° Northeast  Level Estimated
Mon 08:24:00 AM 60.3172 24.9633 37° Northeast  Level Estimated
Mon 08:25:00 AM 60.3172 24.9633 37° Northeast  Level Estimated
Mon 08:26:00 AM 60.3172 24.9633 37° Northeast  Level Estimated
Mon 08:27:00 AM 60.3172 24.9633 37° Northeast  Level Estimated
Mon 08:28:00 AM 60.3172 24.9633 37° Northeast  Level Estimated
Mon 08:29:00 AM 60.3172 24.9633 37° Northeast  Level Estimated
Mon 08:30:00 AM 60.3172 24.9633 37° Northeast  Level Estimated
Mon 08:31:00 AM 60.3172 24.9633 37° Northeast  Level Estimated
Mon 08:32:00 AM 60.3172 24.9633 37° Northeast  Level Estimated
Mon 08:33:00 AM 60.3172 24.9633 37° Northeast  Level Estimated
Mon 08:34:00 AM 60.3172 24.9633 37° Northeast  Level Estimated
Mon 08:35:00 AM 60.3172 24.9633 37° Northeast  Level Estimated
Mon 08:36:00 AM 60.3172 24.9633 37° Northeast  Level Estimated
Mon 08:37:00 AM 60.3172 24.9633 37° Northeast  Level Estimated
Mon 08:38:00 AM 60.3172 24.9633 37° Northeast  Level Estimated

Login

Don't have an account? Register now (free) for customized features, flight alerts, and more!